Tiempo atmosférico en la estación meteorológica de Ayamonte, Huelva (2 m.)



Fecha
DESCASC
Temp. máxima en grados centígrados (hora)
DESCASC
Temp. mínima en grados centígrados (hora)
DESCASC
Temp. media en grados centígrados
DESCASC
Racha de viento máxima en m/sg (hora)
DESCASC
Velocidad máxima media en intervalos de 10 minutos(hora)
DESCASC
Precipitaciones diarias en mm
DESCASC
Precipitaciones de 00:00 a 06:00 en mm
DESCASC
Precipitaciones de 06:00 a 12:00 en mm
DESCASC
Precipitaciones de 12:00 a 18:00 en mm
DESCASC
Precipitaciones de 18:00 a 24:00 en mm
DESCASC
29-03-2020 19.3 (15:40) 10 (04:50) 14.6 5.83 (13:10) 3.33 (13:50) 0 0 0 0 0
28-03-2020 19.4 (15:20) 8.9 (07:30) 14.1 7.22 (12:10) 3.89 (12:10) 0 0 0 0 0
27-03-2020 18 (14:50) 9.1 (06:20) 13.6 6.94 (15:00) 4.17 (15:40) 0 0 0 0 0
26-03-2020 23.7 (16:20) 9.5 (00:00) 16.6 8.06 (14:10) 3.89 (10:10) 0.1 0 0.1 0 0
25-03-2020 19.2 (14:20) 12.5 (00:00) 15.9 5.56 (13:40) 3.06 (04:00) 0.3 0 0 0.3 0
24-03-2020 21.9 (14:20) 9.2 (00:00) 15.5 5.28 (07:30) 3.33 (15:10) 0 0 0 0 0
23-03-2020 19.2 (14:40) 9.2 (00:00) 14.2 5.83 (13:00) 2.78 (15:50) 0.3 0 0 0 0.3
22-03-2020 17.3 (15:30) 7.2 (04:50) 12.2 5.28 (17:10) 3.06 (17:10) 0.1 0 0.1 0 0
21-03-2020 15.9 (11:30) 8 (00:00) 11.9 8.33 (10:40) 5.28 (10:50) 6.8 0 3.9 2.4 0.5
20-03-2020 16.3 (00:00) 10.9 (00:00) 13.6 10 (13:20) 4.72 (13:20) 20 0 1 1.5 17.5
19-03-2020 21.2 (17:10) 13.7 (00:00) 17.5 6.39 (22:40) 3.61 (22:50) 0 0 0 0 0
18-03-2020 23.4 (16:10) 11.7 (00:00) 17.5 9.17 (11:10) 3.61 (11:20) 9.1 9.1 0 0 0
17-03-2020 14.2 (19:20) 9.1 (00:00) 11.7 13.33 (13:50) 6.67 (13:50) 5.2 1.6 0.1 2.4 1.1
16-03-2020 18.8 (16:20) 7.9 (00:00) 13.3 11.94 (16:20) 6.39 (01:50) 0 0 0 0 0
15-03-2020 21.3 (12:50) 10.8 (00:00) 16 12.78 (23:50) 5.83 (23:59) 0 0 0 0 0
14-03-2020 19 (16:00) 11.1 (00:00) 15.1 5 (14:00) 2.78 (13:30) 0 0 0 0 0
13-03-2020 19.6 (13:00) 11.9 (05:50) 15.8 7.22 (17:00) 4.44 (17:00) 0 0 0 0 0
12-03-2020 20.2 (14:40) 11.9 (00:00) 16.1 5.56 (16:00) 3.06 (16:40) 0 0 0 0 0
11-03-2020 22.9 (17:50) 10.7 (00:00) 16.8 4.72 (09:40) 2.5 (15:10) 0 0 0 0 0
10-03-2020 25.9 (14:20) 11.9 (00:00) 18.9 7.22 (05:40) 3.89 (09:20) 0 0 0 0 0
09-03-2020 24.5 (17:00) 11.3 (00:00) 17.9 8.61 (11:20) 4.17 (10:30) 0 0 0 0 0
08-03-2020 24 (15:50) 9 (00:00) 16.5 9.72 (23:00) 3.89 (16:10) 0 0 0 0 0
07-03-2020 21.1 (16:50) 8.4 (00:00) 14.8 7.22 (00:10) 3.33 (07:10) 0 0 0 0 0
06-03-2020 20.1 (16:20) 8.3 (00:00) 14.2 10 (14:00) 4.44 (13:50) 0 0 0 0 0
05-03-2020 20.9 (15:40) 9.9 (00:00) 15.4 9.17 (18:20) 4.44 (13:50) 0 0 0 0 0
04-03-2020 22.2 (15:30) 10.1 (00:00) 16.2 7.5 (14:30) 4.44 (17:10) 0 0 0 0 0
03-03-2020 19.9 (13:10) 7.9 (00:00) 13.9 10.56 (16:40) 6.67 (16:40) 0 0 0 0 0
02-03-2020 21.4 (15:40) 12.8 (00:00) 17.1 9.72 (12:20) 5.56 (01:40) 0 0 0 0 0
01-03-2020 20.3 (13:40) 10.9 (00:00) 15.6 10 (17:30) 6.39 (17:20) 0 0 0 0 0
29-02-2020 20 (15:20) 8.1 (00:00) 14.1 10.28 (13:30) 6.11 (15:00) 0 0 0 0 0

Gráficas

Temp. máximas Temp. mínimas Temp. medias Precipitaciones Rachas de viento máximas Velocidades máximas media en intervalos de 10 minutos

Datos horarios

Fecha y hora oficial Temperatura (ºC) Velocidad del viento (km/h) Dirección del viento Racha (km/h) Dirección de racha Precipitación (mm) Presión (hPa) Tendencia (hPa) Humedad (%)
2020-03-29 23:00:00 13.7 2 Nordeste 3 Norte 0 1015.5 0.2 84
2020-03-29 22:00:00 14.4 0 Calma 5 Sur 0 1015.5 0.1 78
2020-03-29 21:00:00 15.7 3 Sur 10 Sur 0 1015.2 -0.8 71
2020-03-29 20:00:00 17.4 6 Sudoeste 13 Sur 0 1015.3 -1 66
2020-03-29 19:00:00 17 7 Sur 16 Sudoeste 0 1015.4 -1.8 63
2020-03-29 18:00:00 17.9 8 Sur 17 Sur 0 1016 -1.5 59
2020-03-29 17:00:00 17.9 11 Sur 20 Sudeste 0 1016.3 -1.6 54
2020-03-29 16:00:00 18.4 11 Sur 19 Sudeste 0 1017.2 -1 52
2020-03-29 15:00:00 18.4 8 Sudeste 21 Sudeste 0 1017.5 -1 49
2020-03-29 14:00:00 17.8 9 Sudeste 21 Sudeste 0 1017.9 -0.4 49
2020-03-29 13:00:00 17.4 10 Sudeste 21 Este 0 1018.2 0.3 52
2020-03-29 12:00:00 16.9 11 Este 18 Este 0 1018.5 0.6 52
2020-03-29 11:00:00 16.2 6 Sudeste 14 Sudeste 0 1018.3 0.8 61
2020-03-29 10:00:00 13.7 5 Este 10 Nordeste 0 1017.9 0.7 85
2020-03-29 09:00:00 12.1 0 Calma 6 Nordeste 0 1017.9 0.7 90
2020-03-29 08:00:00 11.2 0 Calma 5 Norte 0 1017.5 0.1 91
2020-03-29 07:00:00 11 3 Norte 5 Norte 0 1017.2 -0.5 91
2020-03-29 06:00:00 10.7 3 Nordeste 5 Este 0 1017.2 -0.8 91
2020-03-29 05:00:00 10 0 Calma 4 Noroeste 0 1017.4 -0.6 90
2020-03-29 03:00:00 11 3 Noroeste 6 Noroeste 0 1018 0.3 87
2020-03-29 01:00:00 11.8 0 Calma 5 Sur 0 1018 0.8 84
2020-03-29 00:00:00 12.5 2 Sudeste 8 Sur 0 1018 1.5 81
2020-03-28 23:00:00 12.9 5 Sur 8 Sur 0 1017.7 1.9 83
2020-03-28 22:00:00 13.6 2 Sudeste 5 Sur 0 1017.2 1.8 82
2020-03-28 21:00:00 14.1 0 Calma 5 Sur 0 1016.5 1.5 75
2020-03-28 20:00:00 15.5 4 Sudoeste 8 Sudoeste 0 1015.8 1.2 67
2020-03-28 19:00:00 17.1 5 Sudoeste 16 Sur 0 1015.4 0.8 56
2020-03-28 18:00:00 17.6 9 Sur 20 Sur 0 1015 0.1 55
2020-03-28 17:00:00 18.1 12 Sur 22 Sur 0 1014.6 -0.4 57
2020-03-28 16:00:00 18.4 13 Sur 23 Sur 0 1014.6 -0.5 57
2020-03-28 15:00:00 18.1 12 Sudeste 24 Sur 0 1014.9 0 56
2020-03-28 14:00:00 18.2 12 Sudeste 23 Sudeste 0 1015 0.1 56
2020-03-28 13:00:00 18.5 11 Sudeste 26 Sudeste 0 1015.1 0.7 56
2020-03-28 12:00:00 17.3 12 Este 25 Este 0 1014.9 1 59
2020-03-28 11:00:00 15.7 13 Este 23 Este 0 1014.9 1.6 63
2020-03-28 10:00:00 14.5 5 Este 13 Este 0 1014.4 1.7 72
2020-03-28 09:00:00 11.4 4 Nordeste 10 Este 0 1013.9 2 83
2020-03-28 08:00:00 9.8 3 Norte 9 Norte 0 1013.3 1.7 85
2020-03-28 07:00:00 9.2 3 Norte 10 Nordeste 0 1012.7 1 85
2020-03-28 06:00:00 9.5 4 Norte 11 Norte 0 1011.9 0.3 84
2020-03-28 05:00:00 10 3 Norte 10 Norte 0 1011.6 0 82
2020-03-28 04:00:00 10.5 3 Norte 15 Norte 0 1011.7 -0.1 79
2020-03-28 03:00:00 11 5 Norte 16 Norte 0 1011.6 0 76
2020-03-28 02:00:00 11.8 5 Norte 20 Norte 0 1011.6 0.5 71
2020-03-28 01:00:00 12.3 8 Norte 19 Norte 0 1011.8 1.1 69
2020-03-28 00:00:00 12.9 8 Norte 18 Norte 0 1011.6 1.6 69
2020-03-27 23:00:00 12.6 3 Norte 10 Noroeste 0 1011.1 2 77
2020-03-27 22:00:00 12.5 0 Calma 6 Nordeste 0 1010.7 1.9 80
2020-03-27 21:00:00 13.6 0 Calma 7 Sur 0 1010 1.4 76
2020-03-27 20:00:00 15.1 4 Sudoeste 13 Sudoeste 0 1009.1 0.6 64
2020-03-27 19:00:00 16.6 9 Sudoeste 19 Sudoeste 0 1008.8 0.1 55
2020-03-27 18:00:00 17.3 10 Sudoeste 22 Sudoeste 0 1008.6 -0.4 53
2020-03-27 17:00:00 17.4 13 Sudoeste 24 Sudoeste 0 1008.5 -0.9 52
2020-03-27 16:00:00 17.2 14 Sudoeste 24 Sudoeste 0 1008.7 -1 49
2020-03-27 15:00:00 17.3 14 Sudoeste 25 Sudoeste 0 1009 -1.3 49
2020-03-27 14:00:00 17 13 Sudoeste 21 Sudoeste 0 1009.4 -0.9 50
2020-03-27 13:00:00 16.4 7 Sur 17 Norte 0 1009.7 0 50
2020-03-27 12:00:00 15.2 11 Noroeste 24 Noroeste 0 1010.3 1.1 50
2020-03-27 11:00:00 14.6 5 Norte 22 Noroeste 0 1010.3 1.4 55
2020-03-27 10:00:00 13.1 8 Noroeste 21 Noroeste 0 1009.7 1.1 62
2020-03-27 09:00:00 11.6 7 Noroeste 19 Norte 0 1009.2 0.4 72
2020-03-27 08:00:00 9.6 3 Noroeste 12 Noroeste 0 1008.9 0.2 83
2020-03-27 07:00:00 9.4 2 Noroeste 8 Noroeste 0 1008.6 -0.2 86
2020-03-27 06:00:00 9.3 2 Noroeste 10 Noroeste 0 1008.8 -0.6 86
2020-03-27 05:00:00 9.9 4 Noroeste 9 Oeste 0 1008.7 -1.2 85
2020-03-27 04:00:00 10.5 0 Calma 8 Noroeste 0 1008.8 -1.3 82
2020-03-27 03:00:00 11 4 Noroeste 10 Noroeste 0 1009.4 -1 81
2020-03-27 02:00:00 11.4 3 Noroeste 11 Noroeste 0 1009.9 -0.5 77
2020-03-27 01:00:00 12 6 Oeste 12 Oeste 0 1010.1 -0.2 75
2020-03-27 00:00:00 12.7 5 Noroeste 16 Norte 0 1010.4 0.3 71
2020-03-26 23:00:00 13.3 4 Noroeste 16 Noroeste 0 1010.4 0.9 69
2020-03-26 22:00:00 14.6 8 Noroeste 17 Norte 0 1010.3 1 64
2020-03-26 21:00:00 16 7 Noroeste 19 Norte 0 1010.1 1.1 54
2020-03-26 20:00:00 17.5 9 Noroeste 23 Noroeste 0 1009.5 0.2 45
2020-03-26 19:00:00 19.5 12 Noroeste 28 Noroeste 0 1009.3 -0.5 39
2020-03-26 18:00:00 21.3 11 Noroeste 29 Noroeste 0 1009 -1.5 35
2020-03-26 17:00:00 22.2 12 Noroeste 26 Noroeste 0 1009.3 -1.9 33
2020-03-26 16:00:00 23.3 6 Noroeste 20 Sudoeste 0 1009.8 -2.2 36
2020-03-26 15:00:00 22.1 8 Oeste 29 Oeste 0 1010.5 -2.3 38
2020-03-26 14:00:00 21.2 11 Noroeste 23 Noroeste 0 1011.2 -1.7 38
2020-03-26 13:00:00 20.6 9 Noroeste 26 Noroeste 0 1012 -0.6 43
2020-03-26 12:00:00 18.4 10 Noroeste 24 Noroeste 0 1012.8 0.1 48
2020-03-26 11:00:00 15.9 11 Noroeste 27 Norte 0 1012.9 0.2 56
2020-03-26 10:00:00 14.2 10 Norte 22 Noroeste 0 1012.6 0.1 68
2020-03-26 09:00:00 12.5 9 Noroeste 19 Noroeste 0.1 1012.7 0.4 82
2020-03-26 08:00:00 11 6 Noroeste 15 Noroeste 0 1012.7 0.1 91
2020-03-26 07:00:00 10 0 Calma 6 Norte 0 1012.5 -0.5 92
2020-03-26 06:00:00 10.8 4 Norte 7 Norte 0 1012.3 -1.2 92
2020-03-26 05:00:00 10.1 0 Calma 4 Norte 0 1012.6 -1.4 91
2020-03-26 04:00:00 10.4 0 Calma 4 Noroeste 0 1013 -1.3 91
2020-03-26 03:00:00 11.5 0 Calma 4 Norte 0 1013.5 -1.3 91
2020-03-26 02:00:00 12.4 2 Nordeste 4 Noroeste 0 1014 -1.2 90
2020-03-26 01:00:00 13 2 Oeste 6 Noroeste 0 1014.3 -1 89
2020-03-26 00:00:00 14.1 4 Oeste 10 Sudoeste 0 1014.8 -0.1 88
2020-03-25 23:00:00 14.2 5 Sudoeste 9 Sudoeste 0 1015.2 0.5 87
2020-03-25 22:00:00 14.1 4 Sudoeste 6 Sudoeste 0 1015.3 0.7 86
2020-03-25 21:00:00 14.5 4 Sudoeste 11 Sudoeste 0 1014.9 0.2 84
2020-03-25 20:00:00 15.1 7 Sudoeste 18 Sudoeste 0 1014.7 -0.3 80
2020-03-25 19:00:00 16.4 8 Sudoeste 16 Sudoeste 0 1014.6 -0.6 77
2020-03-25 18:00:00 16.2 9 Sudoeste 17 Sudoeste 0 1014.7 -0.7 79
2020-03-25 17:00:00 16.1 9 Sudoeste 14 Sudoeste 0.3 1015 -0.8 79
2020-03-25 16:00:00 17.4 10 Sur 19 Sur 0 1015.2 -0.9 64
2020-03-25 15:00:00 17.3 8 Sur 20 Sur 0 1015.4 -0.8 63
2020-03-25 14:00:00 18.3 11 Sur 20 Sur 0 1015.8 -0.1 60
2020-03-25 13:00:00 17.2 9 Sur 18 Sudeste 0 1016.1 0.6 64
2020-03-25 12:00:00 16.6 8 Sudeste 15 Sudeste 0 1016.2 1.3 67
2020-03-25 11:00:00 17.1 6 Sudeste 14 Sudeste 0 1015.9 1.4 66
2020-03-25 10:00:00 16.4 7 Sudeste 13 Este 0 1015.5 1.4 76
2020-03-25 09:00:00 15.8 3 Sudeste 7 Sudeste 0 1014.9 1.2 83
2020-03-25 08:00:00 15 3 Sur 6 Sur 0 1014.5 1 84
2020-03-25 07:00:00 14.9 3 Sudeste 9 Sur 0 1014.1 0.8 83
2020-03-25 06:00:00 15.1 5 Sur 11 Sur 0 1013.7 0.4 83
2020-03-25 05:00:00 15.2 6 Sur 16 Sur 0 1013.5 0.3 83
2020-03-25 04:00:00 15.4 11 Sur 18 Sur 0 1013.3 0.5 83
2020-03-25 03:00:00 14.5 8 Sur 13 Sur 0 1013.3 1 87
2020-03-25 02:00:00 12.6 0 Calma 3 Sudeste 0 1013.2 1.3 86
2020-03-25 01:00:00 12.7 0 Calma 8 Sur 0 1012.8 1.5 84
2020-03-25 00:00:00 13.9 4 Noroeste 10 Noroeste 0 1012.3 1.6 81
2020-03-24 23:00:00 14.3 3 Noroeste 7 Norte 0 1011.9 1.9 81
2020-03-24 22:00:00 14.7 0 Calma 4 Sudoeste 0 1011.3 1.9 75
2020-03-24 21:00:00 15.8 3 Sudoeste 6 Oeste 0 1010.7 1.9 71
2020-03-24 20:00:00 16.8 5 Oeste 15 Oeste 0 1010 1.6 60
2020-03-24 19:00:00 17.8 6 Oeste 15 Sudoeste 0 1009.4 1.2 57
2020-03-24 18:00:00 18.4 4 Sur 13 Sur 0 1008.8 0.2 52
2020-03-24 17:00:00 19.5 9 Sudoeste 14 Sur 0 1008.4 -0.6 50
2020-03-24 16:00:00 20.5 6 Sudoeste 18 Sur 0 1008.2 -1.1 43
2020-03-24 15:00:00 18.6 10 Sur 15 Sur 0 1008.6 -1.1 48
2020-03-24 14:00:00 20.8 4 Sudeste 17 Este 0 1009 -0.5 41
2020-03-24 13:00:00 18.9 5 Nordeste 16 Nordeste 0 1009.3 -0.1 45
2020-03-24 12:00:00 17 8 Este 16 Nordeste 0 1009.7 0.7 51
2020-03-24 11:00:00 16.2 9 Este 17 Nordeste 0 1009.5 0.7 56
2020-03-24 10:00:00 13.6 5 Norte 16 Noroeste 0 1009.4 0.8 71
2020-03-24 09:00:00 11.4 6 Norte 19 Norte 0 1009 0.1 80
2020-03-24 08:00:00 10.5 5 Norte 19 Noroeste 0 1008.8 0.2 82
2020-03-24 07:00:00 10.4 4 Norte 16 Noroeste 0 1008.6 -0.3 81
2020-03-24 06:00:00 11 3 Norte 14 Norte 0 1008.9 -0.5 82
2020-03-24 05:00:00 10.5 5 Norte 15 Norte 0 1008.6 -1.2 82
2020-03-24 04:00:00 9.5 2 Norte 8 Norte 0 1008.9 -1.2 84
2020-03-24 03:00:00 9.7 0 Calma 8 Norte 0 1009.4 -1 81
2020-03-24 02:00:00 10.4 2 Nordeste 8 Nordeste 0 1009.8 -0.4 80
2020-03-24 01:00:00 10.6 2 Norte 11 Nordeste 0 1010.1 0.1 78
2020-03-24 00:00:00 12.2 5 Nordeste 12 Norte 0 1010.4 0.7 72
2020-03-23 23:00:00 12.2 4 Norte 13 Norte 0 1010.2 0.9 75
2020-03-23 22:00:00 12.2 2 Norte 7 Norte 0 1010 0.9 81
2020-03-23 21:00:00 13.1 2 Norte 7 Oeste 0 1009.7 1 81
2020-03-23 20:00:00 14 0 Calma 9 Oeste 0 1009.3 0.5 76
2020-03-23 19:00:00 14.5 2 Sudoeste 15 Sudeste 0.3 1009.1 0 72
2020-03-23 18:00:00 16.6 6 Sur 14 Sur 0 1008.7 -1 58
2020-03-23 17:00:00 18 9 Sur 15 Sudoeste 0 1008.8 -1.8 52
2020-03-23 16:00:00 17.8 7 Sudoeste 20 Sur 0 1009.1 -2 54
2020-03-23 15:00:00 18.6 7 Sudeste 17 Sudeste 0 1009.7 -2.1 48
2020-03-23 14:00:00 18 8 Sudeste 20 Sudoeste 0 1010.6 -1.4 50
2020-03-23 13:00:00 17.9 6 Oeste 21 Sudoeste 0 1011.1 -0.8 51
2020-03-23 12:00:00 16.8 6 Sudeste 13 Este 0 1011.8 0.3 51
2020-03-23 11:00:00 15.3 5 Este 13 Este 0 1012 0.9 60
2020-03-23 10:00:00 13.2 3 Norte 15 Norte 0 1011.9 1 74
2020-03-23 09:00:00 12.4 5 Norte 13 Norte 0 1011.5 0.8 79
2020-03-23 08:00:00 10.3 4 Norte 11 Nordeste 0 1011.1 0.5 82
2020-03-23 07:00:00 10.1 3 Norte 8 Norte 0 1010.9 0.1 82
2020-03-23 06:00:00 9.8 2 Norte 10 Noroeste 0 1010.7 -0.4 81
2020-03-23 05:00:00 10.7 6 Norte 12 Norte 0 1010.6 -0.7 77
2020-03-23 04:00:00 9.2 3 Norte 8 Norte 0 1010.8 -0.6 85
2020-03-23 03:00:00 9.8 3 Norte 9 Noroeste 0 1011.1 -0.6 88
2020-03-23 02:00:00 9.8 3 Noroeste 6 Norte 0 1011.3 -0.4 87
2020-03-23 01:00:00 10.2 0 Calma 5 Noroeste 0 1011.4 -0.1 85
2020-03-23 00:00:00 10.9 3 Noroeste 6 Oeste 0 1011.7 0.4 84
2020-03-22 23:00:00 12.2 4 Sudoeste 10 Oeste 0 1011.7 0.9 77
2020-03-22 22:00:00 12.9 5 Sudoeste 13 Sudoeste 0 1011.5 1.3 76
2020-03-22 21:00:00 13.2 8 Sudoeste 16 Sudoeste 0 1011.3 1.6 73
2020-03-22 20:00:00 13.3 9 Sudoeste 14 Oeste 0 1010.8 1.4 69
2020-03-22 19:00:00 14.9 9 Sudoeste 17 Sudoeste 0 1010.2 0.7 61
2020-03-22 18:00:00 16.2 10 Sudoeste 19 Sur 0 1009.7 -0.4 53
2020-03-22 17:00:00 17.2 9 Sudoeste 15 Sur 0 1009.4 -1.2 54
2020-03-22 16:00:00 16.6 7 Sudoeste 15 Sur 0 1009.5 -1.4 52
2020-03-22 15:00:00 16.4 7 Sudoeste 14 Sudoeste 0 1010.1 -0.8 53
2020-03-22 14:00:00 15.1 7 Sur 15 Sur 0 1010.6 -0.2 59
2020-03-22 13:00:00 14.6 7 Sur 15 Sur 0 1010.9 0.4 64
2020-03-22 12:00:00 14.8 4 Sudeste 12 Este 0 1010.9 1 62
2020-03-22 11:00:00 12.4 4 Norte 14 Noroeste 0 1010.8 1.3 74
2020-03-22 10:00:00 11.8 3 Norte 16 Nordeste 0 1010.5 1.3 82
2020-03-22 09:00:00 10.3 4 Norte 12 Norte 0 1009.9 1 90
2020-03-22 08:00:00 8.2 5 Noroeste 9 Noroeste 0.1 1009.5 0.7 92
2020-03-22 07:00:00 8.5 2 Nordeste 9 Nordeste 0 1009.2 0.2 92
2020-03-22 06:00:00 7.7 0 Calma 7 Noroeste 0 1008.9 -0.4 92
2020-03-22 05:00:00 7.3 0 Calma 4 Nordeste 0 1008.8 -0.6 92
2020-03-22 04:00:00 8.3 0 Calma 8 Norte 0 1009 -0.4 92
2020-03-22 03:00:00 8.7 2 Nordeste 6 Norte 0 1009.3 -0.6 92
2020-03-22 02:00:00 9.3 3 Norte 8 Norte 0 1009.4 -0.4 92
2020-03-22 01:00:00 9 2 Noroeste 6 Noroeste 0 1009.4 -0.3 92
2020-03-22 00:00:00 8.8 0 Calma 5 Noroeste 0 1009.9 0.4 90
2020-03-21 23:00:00 9.2 0 Calma 4 Norte 0 1009.8 0.6 89
2020-03-21 22:00:00 10.4 0 Calma 5 Noroeste 0.1 1009.7 1.2 88
2020-03-21 21:00:00 11.2 0 Calma 8 Nordeste 0.1 1009.5 1.3 86
2020-03-21 20:00:00 12.2 4 Nordeste 9 Nordeste 0.3 1009.2 1.4 84
2020-03-21 19:00:00 12.9 3 Este 9 Este 0 1008.5 0.8 81
2020-03-21 18:00:00 13.4 3 Sudeste 12 Este 1.6 1008.2 -0.1 78
2020-03-21 17:00:00 14.3 6 Nordeste 13 Este 0.1 1007.8 -0.8 70
2020-03-21 16:00:00 12.5 6 Este 17 Nordeste 0.6 1007.7 -1.6 78
2020-03-21 15:00:00 14.3 9 Sur 20 Sudoeste 0 1008.3 -1.6 71
2020-03-21 14:00:00 14.4 13 Sur 21 Sur 0.1 1008.6 -1.5 72
2020-03-21 13:00:00 13.4 12 Sur 27 Sur 0 1009.3 -1.5 74
2020-03-21 12:00:00 14.8 15 Sur 27 Sur 0 1009.9 -0.8 66
2020-03-21 11:00:00 14.7 17 Sur 30 Sur 0.3 1010.1 -0.8 73
2020-03-21 10:00:00 12.1 0 Calma 15 Noroeste 3.1 1010.8 -0.3 89
2020-03-21 09:00:00 10.8 3 Nordeste 10 Este 0.3 1010.7 -0.4 93
2020-03-21 08:00:00 9.1 0 Calma 6 Este 0.2 1010.9 -0.6 93
2020-03-21 07:00:00 8.5 2 Este 5 Este 0 1011.1 -0.5 92
2020-03-21 06:00:00 8.4 3 Nordeste 4 Este 0 1011.1 -0.9 92
2020-03-21 05:00:00 8.1 2 Norte 5 Noroeste 0 1011.5 -0.7 91
2020-03-21 04:00:00 9.4 5 Oeste 9 Oeste 0 1011.6 -1.1 91
2020-03-21 03:00:00 9.2 5 Oeste 8 Noroeste 0 1012 -0.7 91
2020-03-21 02:00:00 9.6 4 Oeste 7 Oeste 0 1012.2 -0.4 91
2020-03-21 01:00:00 10 0 Calma 3 Sur 0 1012.7 0.3 90
2020-03-21 00:00:00 11 0 Calma 5 Oeste 0.1 1012.7 1.4 90
2020-03-20 23:00:00 11.5 2 Noroeste 13 Noroeste 0 1012.6 1.6 90
2020-03-20 22:00:00 11.7 5 Noroeste 20 Noroeste 0 1012.4 1.4 91
2020-03-20 21:00:00 11.5 5 Norte 25 Norte 1.2 1011.3 1.2 91
2020-03-20 20:00:00 11.2 12 Norte 31 Norte 13.7 1011 0.7 91
2020-03-20 19:00:00 12.1 10 Noroeste 22 Oeste 2.5 1011 0.3 87
2020-03-20 18:00:00 15.6 13 Sur 25 Sudeste 0.6 1010.1 -1.5 86
2020-03-20 17:00:00 16 10 Sudeste 24 Sudeste 0 1010.3 -1.7 80
2020-03-20 16:00:00 16.2 11 Sudeste 23 Sudeste 0 1010.7 -1.7 82
2020-03-20 15:00:00 15.8 10 Sudeste 23 Sudeste 0.9 1011.6 -1.5 86
2020-03-20 14:00:00 15.9 10 Sudeste 36 Sudeste 0 1012 -1.4 77
2020-03-20 13:00:00 16 11 Sudeste 26 Sudeste 0 1012.4 -1 78
2020-03-20 12:00:00 15.6 8 Sudeste 19 Sudeste 1 1013.1 0.2 82
2020-03-20 11:00:00 15.5 8 Este 17 Este 0 1013.4 0.8 73
2020-03-20 10:00:00 16 3 Sudeste 14 Este 0 1013.4 1.3 69
2020-03-20 09:00:00 15.3 0 Calma 5 Nordeste 0 1012.9 0.9 77
2020-03-20 08:00:00 15.1 3 Este 12 Sudeste 0 1012.6 0.6 74
2020-03-20 07:00:00 15 3 Sudeste 5 Sudeste 0 1012.1 -0.2 77
2020-03-20 06:00:00 15.5 0 Calma 11 Sur 0 1012 -1.1 73
2020-03-20 05:00:00 15.8 6 Sudoeste 14 Sudoeste 0 1012 -1.6 72
2020-03-20 04:00:00 15.6 5 Sudoeste 10 Sudoeste 0 1012.3 -1.5 74
2020-03-20 03:00:00 15.7 4 Sudoeste 7 Sur 0 1013.1 -1.1 77
2020-03-20 02:00:00 15.9 4 Sudoeste 13 Sudoeste 0 1013.6 -0.7 77
2020-03-20 01:00:00 15.9 5 Sudoeste 14 Sudoeste 0 1013.8 0.3 77
2020-03-20 00:00:00 16.3 10 Sudoeste 21 Sudoeste 0 1014.2 1.1 77
2020-03-19 23:00:00 16.4 12 Sudoeste 23 Sudoeste 0 1014.3 1.5 75
2020-03-19 22:00:00 15.9 9 Sudoeste 18 Sudoeste 0 1013.5 0.7 74
2020-03-19 21:00:00 16.2 8 Sudoeste 15 Sudoeste 0 1013.1 0.4 67
2020-03-19 20:00:00 16.7 8 Oeste 14 Oeste 0 1012.8 -0.1 62
2020-03-19 19:00:00 18.1 7 Sudoeste 16 Sudoeste 0 1012.8 -0.6 55
2020-03-19 18:00:00 19 11 Sudoeste 17 Sudoeste 0 1012.7 -1.4 49
2020-03-19 17:00:00 20.6 6 Sudoeste 14 Sudoeste 0 1012.9 -1.8 47
2020-03-19 16:00:00 20 9 Sudoeste 17 Sudoeste 0 1013.4 -2.1 48
2020-03-19 15:00:00 20.2 10 Sudoeste 20 Sur 0 1014.1 -2.1 51
2020-03-19 14:00:00 20 10 Sudeste 22 Sudeste 0 1014.7 -1.7 50
2020-03-19 13:00:00 19.9 12 Este 23 Este 0 1015.5 -0.7 51
2020-03-19 12:00:00 18 7 Este 19 Nordeste 0 1016.2 0.6 57
2020-03-19 11:00:00 16.8 8 Nordeste 23 Nordeste 0 1016.4 1.3 62
2020-03-19 10:00:00 16.1 5 Nordeste 13 Nordeste 0 1016.2 0.7 70
2020-03-19 09:00:00 14.5 0 Calma 10 Noroeste 0 1015.6 -0.1 78
2020-03-19 08:00:00 13.9 3 Norte 11 Norte 0 1015.1 -0.9 81
2020-03-19 07:00:00 13.9 3 Nordeste 12 Nordeste 0 1015.5 -1.2 79
2020-03-19 06:00:00 14.3 2 Norte 10 Este 0 1015.7 -1.9 77
2020-03-19 05:00:00 15.6 6 Este 15 Este 0 1016 -1.9 74
2020-03-19 04:00:00 15.9 9 Este 20 Sudeste 0 1016.7 -0.9 71
2020-03-19 03:00:00 16 8 Sudeste 17 Sudeste 0 1017.6 0.4 70
2020-03-19 02:00:00 15.9 5 Sudeste 14 Este 0 1017.9 1 72
2020-03-19 01:00:00 16.1 8 Sudeste 17 Sudeste 0 1017.6 1.1 72
2020-03-19 00:00:00 16.1 7 Sudeste 19 Sudeste 0 1017.2 0.9 74
2020-03-18 23:00:00 15.1 3 Sudoeste 6 Sudoeste 0 1016.9 1 81
2020-03-18 22:00:00 15.2 2 Noroeste 5 Sudoeste 0 1016.5 1.3 77
2020-03-18 21:00:00 15.8 2 Noroeste 3 Oeste 0 1016.3 1.4 76
2020-03-18 20:00:00 17 0 Calma 8 Sur 0 1015.9 1.2 68
2020-03-18 19:00:00 18.2 5 Sur 15 Sur 0 1015.2 0.1 61
2020-03-18 18:00:00 20.5 7 Sur 21 Este 0 1014.9 -0.8 48
2020-03-18 17:00:00 23.3 12 Este 25 Nordeste 0 1014.7 -1.7 42
2020-03-18 16:00:00 23.3 5 Nordeste 17 Sudeste 0 1015.1 -2 43
2020-03-18 15:00:00 21.9 9 Sudeste 22 Nordeste 0 1015.7 -1.9 44
2020-03-18 14:00:00 21.7 10 Este 21 Este 0 1016.4 -1.2 45
2020-03-18 13:00:00 20.6 11 Este 24 Este 0 1017.1 -0.4 48
2020-03-18 12:00:00 19.5 12 Nordeste 33 Este 0 1017.6 0.7 52
2020-03-18 11:00:00 18 12 Este 26 Este 0 1017.6 1.1 58
2020-03-18 10:00:00 15.8 8 Nordeste 14 Este 0 1017.5 1.1 68
2020-03-18 09:00:00 14.1 5 Nordeste 15 Nordeste 0 1016.9 0.5 79
2020-03-18 08:00:00 12.7 3 Norte 9 Noroeste 0 1016.5 0.5 86
2020-03-18 07:00:00 12 2 Norte 9 Noroeste 0 1016.4 -0.1 86
2020-03-18 06:00:00 12.6 4 Norte 14 Noroeste 0 1016.4 0.2 87
2020-03-18 05:00:00 12.4 5 Norte 12 Norte 0 1016 -1.9 90
2020-03-18 04:00:00 12.5 3 Sudoeste 12 Noroeste 0.1 1016.5 -1.8 91
2020-03-18 03:00:00 12.2 6 Noroeste 12 Noroeste 2.4 1016.2 -2.2 91
2020-03-18 02:00:00 11.9 0 Calma 15 Este 3.7 1017.9 -0.4 90
2020-03-18 01:00:00 11.9 9 Nordeste 19 Este 2.9 1018.3 0.3 84
2020-03-18 00:00:00 12.4 3 Norte 9 Noroeste 0.4 1018.4 0.6 82
2020-03-17 23:00:00 12.7 0 Calma 17 Nordeste 0.5 1018.3 0.6 77
2020-03-17 22:00:00 13.9 8 Nordeste 16 Nordeste 0.2 1018 0.4 62
2020-03-17 21:00:00 13.6 3 Norte 9 Norte 0 1017.8 0.5 67
2020-03-17 20:00:00 13.5 3 Nordeste 19 Este 0 1017.7 0.3 75
2020-03-17 19:00:00 13.7 0 Calma 11 Norte 0 1017.6 0.3 80
2020-03-17 18:00:00 12.8 6 Noroeste 12 Noroeste 0 1017.3 -0.5 80
2020-03-17 17:00:00 12.7 4 Noroeste 16 Sur 0 1017.4 0.3 82
2020-03-17 16:00:00 12.1 0 Calma 23 Este 0.6 1017.3 0.1 83
2020-03-17 15:00:00 11 13 Este 45 Sudeste 1.8 1017.8 0.6 85
2020-03-17 14:00:00 13 21 Sudeste 48 Sudeste 0 1017.1 0.3 65
2020-03-17 13:00:00 11.2 10 Este 32 Este 0 1017.2 0.7 72
2020-03-17 12:00:00 10.9 18 Este 36 Este 0.1 1017.2 1.1 69
2020-03-17 11:00:00 10.6 14 Este 30 Este 0 1016.8 1.1 74
2020-03-17 10:00:00 11 13 Este 28 Este 0 1016.5 1.1 67
2020-03-17 09:00:00 10.3 7 Nordeste 16 Este 0 1016.1 1.1 79
2020-03-17 08:00:00 9.4 4 Nordeste 14 Norte 0 1015.7 0.9 82
2020-03-17 07:00:00 9.4 3 Norte 15 Norte 0 1015.4 0.5 83
2020-03-17 06:00:00 10 4 Norte 13 Norte 0 1015 -0.7 85
2020-03-17 05:00:00 10 6 Noroeste 11 Norte 0.2 1014.8 -0.8 85
2020-03-17 04:00:00 9.9 6 Noroeste 12 Noroeste 1.2 1014.9 -1.3 85
2020-03-17 03:00:00 10.5 4 Norte 15 Norte 0.2 1015.7 -0.7 75
2020-03-17 02:00:00 11.5 6 Nordeste 23 Norte 0 1015.6 -1 65
2020-03-17 01:00:00 12.2 8 Noroeste 21 Norte 0 1016.2 0 56
2020-03-17 00:00:00 12.7 10 Noroeste 23 Norte 0 1016.4 0.5 53
2020-03-16 23:00:00 12.9 11 Noroeste 26 Norte 0 1016.6 1.4 49
2020-03-16 22:00:00 13.5 7 Noroeste 28 Norte 0 1016.2 1.7 45
2020-03-16 21:00:00 14.6 11 Noroeste 28 Noroeste 0 1015.9 1.5 39
2020-03-16 20:00:00 16 10 Noroeste 28 Noroeste 0 1015.2 0.8 35
2020-03-16 19:00:00 16.4 11 Noroeste 30 Norte 0 1014.5 0 33
2020-03-16 18:00:00 18 15 Noroeste 38 Noroeste 0 1014.4 -0.9 30
2020-03-16 17:00:00 17.9 15 Noroeste 43 Norte 0 1014.4 -1.4 30
2020-03-16 16:00:00 18.6 17 Noroeste 41 Noroeste 0 1014.5 -2 30
2020-03-16 15:00:00 17.7 17 Noroeste 43 Noroeste 0 1015.3 -2.4 32
2020-03-16 14:00:00 17.2 17 Noroeste 40 Norte 0 1015.8 -2.2 32
2020-03-16 13:00:00 16.2 16 Noroeste 35 Noroeste 0 1016.5 -1.6 36
2020-03-16 12:00:00 14.6 13 Noroeste 32 Noroeste 0 1017.7 -0.1 41
2020-03-16 11:00:00 14.1 13 Noroeste 35 Norte 0 1018 0.4 44
2020-03-16 10:00:00 12.2 13 Noroeste 35 Noroeste 0 1018.1 1 51
2020-03-16 09:00:00 10.3 9 Noroeste 26 Noroeste 0 1017.8 2.1 59
2020-03-16 08:00:00 8 4 Noroeste 20 Noroeste 0 1017.6 2.3 67
2020-03-16 07:00:00 9 12 Noroeste 42 Norte 0 1017.1 1.9 61
2020-03-16 06:00:00 9.2 6 Norte 24 Nordeste 0 1015.7 0.1 60
2020-03-16 05:00:00 9.4 8 Norte 31 Norte 0 1015.3 0.1 60
2020-03-16 04:00:00 9.9 13 Norte 31 Noroeste 0 1015.2 -0.1 59
2020-03-16 03:00:00 10.5 16 Norte 42 Noroeste 0 1015.6 0.1 58
2020-03-16 02:00:00 11.4 21 Norte 42 Noroeste 0 1015.2 0 57
2020-03-16 01:00:00 12.5 17 Norte 40 Norte 0 1015.3 1 58
2020-03-16 00:00:00 13.7 21 Norte 46 Noroeste 0 1015.5 2 57
2020-03-15 23:00:00 14.8 15 Noroeste 38 Norte 0 1015.2 2.4 57
2020-03-15 22:00:00 17.4 9 Noroeste 22 Norte 0 1014.3 1.4 52
2020-03-15 21:00:00 16.7 9 Oeste 23 Oeste 0 1013.5 0.2 68
2020-03-15 20:00:00 16.7 9 Sudoeste 23 Sudoeste 0 1012.8 -0.6 67
2020-03-15 19:00:00 17.9 12 Sudoeste 22 Sudoeste 0 1012.9 -0.8 60
2020-03-15 18:00:00 19.3 12 Sudoeste 21 Sudoeste 0 1013.3 -0.8 57
2020-03-15 17:00:00 20 12 Sudoeste 19 Sudoeste 0 1013.4 -1.8 54
2020-03-15 16:00:00 19.8 11 Sudoeste 22 Sudoeste 0 1013.7 -2 53
2020-03-15 15:00:00 20.1 13 Sudoeste 22 Sudoeste 0 1014.1 -1.8 54
2020-03-15 14:00:00 20.3 11 Sur 22 Sudoeste 0 1015.2 -0.9 58
2020-03-15 13:00:00 20.6 9 Sudoeste 17 Sudoeste 0 1015.7 -0.3 51
2020-03-15 12:00:00 20.1 8 Sudoeste 13 Sudoeste 0 1015.9 0.1 55
2020-03-15 11:00:00 17.3 0 Calma 5 Noroeste 0 1016.1 0.8 70
2020-03-15 10:00:00 16.3 0 Calma 5 Norte 0 1016 0.9 78
2020-03-15 09:00:00 13.6 0 Calma 5 Nordeste 0 1015.8 0.8 90
2020-03-15 08:00:00 11.1 0 Calma 3 Noroeste 0 1015.3 0.5 91
2020-03-15 07:00:00 11.4 0 Calma 5 Norte 0 1015.1 -0.1 91
2020-03-15 06:00:00 10.9 0 Calma 3 Nordeste 0 1015 -0.5 91
2020-03-15 05:00:00 10.9 0 Calma 3 Norte 0 1014.8 -0.9 89
2020-03-15 04:00:00 11.1 0 Calma 3 Noroeste 0 1015.2 -0.6 88
2020-03-15 03:00:00 11.3 0 Calma 3 Norte 0 1015.5 -0.7 88
2020-03-15 02:00:00 11.8 2 Norte 5 Norte 0 1015.7 -0.6 88
2020-03-15 01:00:00 12.2 3 Noroeste 5 Noroeste 0 1015.8 -0.6 88
2020-03-15 00:00:00 12.4 0 Calma 4 Norte 0 1016.2 0 87
2020-03-14 23:00:00 12.8 0 Calma 4 Noroeste 0 1016.3 0.3 87
2020-03-14 22:00:00 13.3 0 Calma 2 Nordeste 0 1016.4 0.3 84
2020-03-14 21:00:00 14.1 0 Calma 3 Sudoeste 0 1016.2 -0.2 80
2020-03-14 20:00:00 15.3 3 Sudoeste 9 Sudoeste 0 1016 -0.6 71
2020-03-14 19:00:00 17.1 6 Sudoeste 13 Sudoeste 0 1016.1 -0.9 65
2020-03-14 18:00:00 17.6 6 Sudoeste 13 Sur 0 1016.4 -1.2 63
2020-03-14 17:00:00 18.1 6 Sur 16 Sudoeste 0 1016.6 -1.9 60
2020-03-14 16:00:00 18.4 9 Sur 15 Sur 0 1017 -2.1 60
2020-03-14 15:00:00 17.9 6 Sudeste 17 Sudeste 0 1017.6 -1.6 63
2020-03-14 14:00:00 17.6 9 Sudeste 18 Sudeste 0 1018.5 -0.9 66
2020-03-14 13:00:00 16.9 8 Sudeste 17 Sudeste 0 1019.1 0.2 71
2020-03-14 12:00:00 16.6 7 Sudeste 13 Sudeste 0 1019.2 0.7 72
2020-03-14 11:00:00 14.9 3 Nordeste 10 Nordeste 0 1019.4 1.3 81
2020-03-14 10:00:00 13.4 3 Norte 10 Noroeste 0 1018.9 1.1 90
2020-03-14 09:00:00 12.9 2 Norte 9 Noroeste 0 1018.5 1.2 91
2020-03-14 08:00:00 11.3 3 Nordeste 8 Este 0 1018.1 1.1 88
2020-03-14 07:00:00 11.6 4 Nordeste 7 Este 0 1017.8 0.7 86
2020-03-14 06:00:00 12.5 2 Norte 7 Norte 0 1017.3 -0.2 84
2020-03-14 05:00:00 13.1 5 Noroeste 15 Noroeste 0 1017 -0.5 84
2020-03-14 04:00:00 13 4 Noroeste 13 Noroeste 0 1017.1 -0.5 83
2020-03-14 03:00:00 13.7 4 Norte 12 Noroeste 0 1017.5 0 81
2020-03-14 02:00:00 13.5 4 Norte 10 Noroeste 0 1017.5 0.1 82
2020-03-14 01:00:00 13.1 2 Norte 8 Norte 0 1017.6 0.6 85
2020-03-14 00:00:00 12.7 0 Calma 4 Este 0 1017.5 0.7 85
2020-03-13 23:00:00 13.7 0 Calma 5 Noroeste 0 1017.4 0.9 85
2020-03-13 22:00:00 14.4 3 Oeste 9 Oeste 0 1017 0.7 83
2020-03-13 21:00:00 14.8 4 Sudoeste 13 Sudoeste 0 1016.8 0.7 80
2020-03-13 20:00:00 15.6 9 Sudoeste 19 Sudoeste 0 1016.5 0.2 79
2020-03-13 19:00:00 16.5 12 Sudoeste 22 Sudoeste 0 1016.3 -0.3 73
2020-03-13 18:00:00 18.2 12 Sudoeste 22 Sudoeste 0 1016.1 -0.8 66
2020-03-13 17:00:00 18.3 16 Sudoeste 26 Sudoeste 0 1016.3 -1.4 64
2020-03-13 16:00:00 19 14 Sudoeste 26 Sudoeste 0 1016.6 -1.5 63
2020-03-13 15:00:00 18.6 14 Sudoeste 22 Sudoeste 0 1016.9 -1.6 61
2020-03-13 14:00:00 18.5 12 Sudoeste 20 Sur 0 1017.7 -0.9 55
2020-03-13 13:00:00 19.5 3 Sudoeste 15 Noroeste 0 1018.1 -0.2 52
2020-03-13 12:00:00 16.8 6 Norte 18 Norte 0 1018.5 0.9 58
2020-03-13 11:00:00 15.5 6 Norte 21 Noroeste 0 1018.6 1.6 65
2020-03-13 10:00:00 13.9 10 Norte 24 Noroeste 0 1018.3 1.4 72
2020-03-13 09:00:00 13.1 6 Norte 23 Noroeste 0 1017.6 0.9 80
2020-03-13 08:00:00 12.1 9 Noroeste 24 Noroeste 0 1017 0.3 85
2020-03-13 07:00:00 12.1 7 Norte 17 Noroeste 0 1016.9 0.2 87
2020-03-13 06:00:00 11.9 6 Noroeste 12 Norte 0 1016.7 0 92
2020-03-13 05:00:00 12.7 3 Noroeste 8 Oeste 0 1016.7 -0.1 92
2020-03-13 04:00:00 12.9 3 Noroeste 9 Norte 0 1016.7 -0.5 89
2020-03-13 03:00:00 13.8 0 Calma 9 Norte 0 1016.7 -1 90
2020-03-13 02:00:00 13.9 2 Este 9 Noroeste 0 1016.8 -0.8 91
2020-03-13 01:00:00 14.4 2 Nordeste 8 Norte 0 1017.2 -0.2 91
2020-03-13 00:00:00 14.6 0 Calma 5 Sur 0 1017.7 0.7 89
2020-03-12 23:00:00 14.8 3 Sudoeste 9 Sudoeste 0 1017.6 1 89
2020-03-12 22:00:00 14.8 6 Sur 11 Sur 0 1017.4 0.9 90
2020-03-12 21:00:00 14.8 4 Sur 6 Sudeste 0 1017 0.6 86
2020-03-12 20:00:00 15.8 4 Sudoeste 12 Oeste 0 1016.6 -0.1 83
2020-03-12 19:00:00 17.4 6 Sudoeste 15 Sudoeste 0 1016.5 -0.6 76
2020-03-12 18:00:00 18.8 9 Sudoeste 15 Sudoeste 0 1016.4 -1.5 69
2020-03-12 17:00:00 19 10 Sudoeste 17 Sudoeste 0 1016.7 -1.7 66
2020-03-12 16:00:00 19.7 9 Sur 20 Sudoeste 0 1017.1 -2 65
2020-03-12 15:00:00 19.8 9 Sudoeste 18 Sur 0 1017.9 -1.3 62
2020-03-12 14:00:00 18.9 8 Sur 17 Sudeste 0 1018.4 -0.6 65
2020-03-12 13:00:00 18.8 5 Sudeste 12 Sur 0 1019.1 0.4 68
2020-03-12 12:00:00 17.6 6 Sur 12 Sur 0 1019.2 1 72
2020-03-12 11:00:00 17.3 4 Sudeste 12 Sudeste 0 1019 1.4 74
2020-03-12 10:00:00 16.7 6 Sur 12 Sur 0 1018.7 1.4 77
2020-03-12 09:00:00 16 4 Sudeste 9 Sur 0 1018.2 1.4 82
2020-03-12 08:00:00 15.4 3 Sur 10 Sudoeste 0 1017.6 0.7 85
2020-03-12 07:00:00 15.3 5 Sur 12 Sudeste 0 1017.3 0.2 86
2020-03-12 06:00:00 15.4 8 Sur 13 Sur 0 1016.8 -0.6 87
2020-03-12 05:00:00 14.3 4 Sur 7 Sur 0 1016.9 -1 86
2020-03-12 04:00:00 12 0 Calma 4 Oeste 0 1017.1 -1.1 85
2020-03-12 03:00:00 12.9 2 Noroeste 5 Norte 0 1017.4 -1.2 81
2020-03-12 02:00:00 13.2 0 Calma 3 Este 0 1017.9 -0.6 78
2020-03-12 01:00:00 14.1 0 Calma 7 Norte 0 1018.2 -0.2 75
2020-03-12 00:00:00 13.6 2 Noroeste 5 Noroeste 0 1018.6 0.7 76
2020-03-11 23:00:00 15 2 Oeste 8 Sudeste 0 1018.5 0.8 67
2020-03-11 22:00:00 15.6 2 Oeste 5 Oeste 0 1018.4 0.7 63
2020-03-11 21:00:00 17.1 0 Calma 4 Sudeste 0 1017.9 0.2 58
2020-03-11 20:00:00 18.7 0 Calma 5 Sur 0 1017.7 -0.2 55
2020-03-11 19:00:00 20.8 0 Calma 7 Sudoeste 0 1017.7 -0.7 52
2020-03-11 18:00:00 22.4 4 Sudoeste 9 Sur 0 1017.7 -1.2 46
2020-03-11 17:00:00 21.6 3 Oeste 8 Sudoeste 0 1017.9 -1.5 51
2020-03-11 16:00:00 19.8 7 Sudoeste 15 Sur 0 1018.4 -1.7 54
2020-03-11 15:00:00 20.7 8 Sudoeste 14 Sur 0 1018.9 -1.7 51
2020-03-11 14:00:00 20.8 5 Sudoeste 14 Sudoeste 0 1019.4 -1.7 54
2020-03-11 13:00:00 21.4 2 Sur 15 Sudoeste 0 1020.1 -0.9 53
2020-03-11 12:00:00 21.7 6 Sudeste 15 Este 0 1020.6 -0.2 46
2020-03-11 11:00:00 21.5 9 Este 16 Este 0 1021.1 0.4 46
2020-03-11 10:00:00 19.3 8 Nordeste 17 Nordeste 0 1021 -0.1 51
2020-03-11 09:00:00 13.9 4 Norte 10 Norte 0 1020.8 0.1 70
2020-03-11 08:00:00 11.6 3 Nordeste 9 Noroeste 0 1020.7 -0.2 74
2020-03-11 07:00:00 11.5 2 Norte 9 Norte 0 1021.1 -0.3 74
2020-03-11 06:00:00 10.8 3 Norte 9 Norte 0 1020.7 -1.4 79
2020-03-11 05:00:00 11.7 2 Norte 6 Norte 0 1020.9 -1.6 78
2020-03-11 04:00:00 11.7 3 Noroeste 7 Norte 0 1021.4 -1.5 75
2020-03-11 03:00:00 12.4 3 Norte 9 Noroeste 0 1022.1 -1.1 74
2020-03-11 02:00:00 13.1 0 Calma 4 Norte 0 1022.5 -0.7 74
2020-03-11 01:00:00 15.7 3 Este 12 Sudeste 0 1022.9 -0.2 61
2020-03-11 00:00:00 15.1 4 Este 9 Este 0 1023.2 0.4 65
2020-03-10 23:00:00 15 4 Nordeste 5 Nordeste 0 1023.2 0.9 63
2020-03-10 22:00:00 15.3 0 Calma 7 Sudoeste 0 1023.1 0.7 61
2020-03-10 21:00:00 16.7 0 Calma 4 Norte 0 1022.8 0.5 49
2020-03-10 20:00:00 18.5 0 Calma 5 Noroeste 0 1022.3 -0.3 45
2020-03-10 19:00:00 21.9 2 Sudoeste 8 Sur 0 1022.4 -0.6 40
2020-03-10 18:00:00 23.2 4 Sudoeste 11 Sudoeste 0 1022.3 -1 36
2020-03-10 17:00:00 23.6 6 Sudoeste 14 Sur 0 1022.6 -1.4 35
2020-03-10 16:00:00 24.2 8 Sur 18 Sur 0 1023 -1.7 33
2020-03-10 15:00:00 24.8 10 Sur 19 Sur 0 1023.3 -1.8 31
2020-03-10 14:00:00 25.4 8 Sudeste 18 Sudeste 0 1024 -1.3 32
2020-03-10 13:00:00 24.5 8 Este 22 Este 0 1024.7 -0.5 33
2020-03-10 12:00:00 22.9 9 Este 19 Norte 0 1025.1 0.4 35
2020-03-10 11:00:00 19.5 4 Norte 15 Noroeste 0 1025.3 1.6 49
2020-03-10 10:00:00 15.2 10 Noroeste 22 Norte 0 1025.2 1.3 62
2020-03-10 09:00:00 12.6 7 Norte 22 Norte 0 1024.7 1.3 73
2020-03-10 08:00:00 12 10 Norte 23 Noroeste 0 1023.7 0.4 74
2020-03-10 07:00:00 12.2 4 Norte 20 Noroeste 0 1023.9 0.2 73
2020-03-10 06:00:00 12.7 7 Norte 26 Noroeste 0 1023.4 -1.2 70
2020-03-10 05:00:00 13.5 5 Noroeste 22 Norte 0 1023.3 -1.4 66
2020-03-10 04:00:00 13.8 10 Noroeste 20 Norte 0 1023.7 -1.3 65
2020-03-10 03:00:00 14.6 6 Noroeste 15 Norte 0 1024.6 -0.6 59
2020-03-10 02:00:00 14.8 7 Noroeste 15 Norte 0 1024.7 -0.4 57
2020-03-10 01:00:00 15.7 7 Noroeste 19 Norte 0 1025 0.3 52
2020-03-10 00:00:00 16.2 8 Noroeste 18 Noroeste 0 1025.2 1 48
2020-03-09 23:00:00 17.3 5 Noroeste 18 Norte 0 1025.1 1.5 41
2020-03-09 22:00:00 18 8 Noroeste 17 Noroeste 0 1024.7 1 40
2020-03-09 21:00:00 18.1 6 Noroeste 12 Norte 0 1024.2 0.5 38
2020-03-09 20:00:00 20.4 5 Norte 15 Noroeste 0 1023.6 -0.4 30
2020-03-09 19:00:00 22.3 8 Norte 27 Norte 0 1023.7 -0.7 28
2020-03-09 18:00:00 23.7 6 Norte 27 Nordeste 0 1023.7 -1.6 27
2020-03-09 17:00:00 23.7 11 Norte 27 Noroeste 0 1024 -2.1 26
2020-03-09 16:00:00 23.6 12 Norte 27 Norte 0 1024.4 -2.5 27
2020-03-09 15:00:00 23.6 7 Norte 24 Noroeste 0 1025.3 -1.8 28
2020-03-09 14:00:00 22.7 11 Norte 25 Noroeste 0 1026.1 -1.5 32
2020-03-09 13:00:00 20.9 10 Norte 29 Noroeste 0 1026.9 -0.6 37
2020-03-09 12:00:00 17.6 15 Noroeste 31 Noroeste 0 1027.1 0.2 50
2020-03-09 11:00:00 15.6 11 Norte 28 Norte 0 1027.6 1.1 63
2020-03-09 10:00:00 13.3 14 Noroeste 27 Norte 0 1027.5 1.5 74
2020-03-09 09:00:00 12.4 12 Noroeste 25 Norte 0 1026.9 1 81
2020-03-09 08:00:00 11.7 5 Noroeste 14 Noroeste 0 1026.5 0.6 83
2020-03-09 07:00:00 11.6 0 Calma 11 Noroeste 0 1026 -0.1 85
2020-03-09 06:00:00 11.8 3 Norte 15 Norte 0 1025.9 -0.7 83
2020-03-09 05:00:00 12.7 4 Norte 25 Noroeste 0 1025.9 -0.9 81
2020-03-09 04:00:00 12.7 10 Noroeste 23 Noroeste 0 1026.1 0 79
2020-03-09 03:00:00 13.4 5 Noroeste 19 Norte 0 1026.6 0.9 74
2020-03-09 02:00:00 14.4 7 Norte 22 Nordeste 0 1026.8 0.9 68
2020-03-09 01:00:00 15.3 6 Norte 27 Norte 0 1026.1 0.5 64
2020-03-09 00:00:00 16.1 10 Norte 29 Norte 0 1025.7 0.3 58
2020-03-08 23:00:00 17 10 Norte 35 Noroeste 0 1025.9 1 51
2020-03-08 22:00:00 17.6 6 Norte 23 Norte 0 1025.6 0.9 48
2020-03-08 21:00:00 17.2 7 Noroeste 16 Norte 0 1025.4 0.9 47
2020-03-08 20:00:00 17.9 3 Noroeste 14 Noroeste 0 1024.9 0.7 43
2020-03-08 19:00:00 18.7 3 Oeste 19 Oeste 0 1024.7 0.5 48
2020-03-08 18:00:00 20.6 11 Sudoeste 22 Oeste 0 1024.5 0 40
2020-03-08 17:00:00 21.9 11 Sudoeste 23 Sudoeste 0 1024.2 -1.2 36
2020-03-08 16:00:00 23 9 Oeste 21 Oeste 0 1024.2 -2 35
2020-03-08 15:00:00 23 5 Norte 18 Norte 0 1024.5 -2 32
2020-03-08 14:00:00 21.8 6 Norte 16 Noroeste 0 1025.4 -1.4 34
2020-03-08 13:00:00 20.2 6 Noroeste 20 Noroeste 0 1026.2 0.1 38
2020-03-08 12:00:00 18.6 9 Norte 21 Noroeste 0 1026.5 1.2 44
2020-03-08 11:00:00 15.8 10 Noroeste 22 Norte 0 1026.8 2.2 50
2020-03-08 10:00:00 13.2 7 Norte 21 Norte 0 1026.1 1.5 58
2020-03-08 09:00:00 11.6 4 Norte 17 Noroeste 0 1025.3 0.9 65
2020-03-08 08:00:00 9.2 6 Noroeste 18 Norte 0 1024.6 0.5 70
2020-03-08 07:00:00 9.7 10 Norte 21 Noroeste 0 1024.6 0.4 64
2020-03-08 06:00:00 10.6 8 Norte 15 Norte 0 1024.4 -0.1 57
2020-03-08 05:00:00 11 3 Norte 14 Noroeste 0 1024.1 -0.8 56
2020-03-08 04:00:00 12 5 Norte 13 Norte 0 1024.2 -0.7 53
2020-03-08 03:00:00 12.3 3 Norte 13 Norte 0 1024.5 -0.6 53
2020-03-08 02:00:00 13.1 4 Norte 14 Noroeste 0 1024.9 -0.3 50
2020-03-08 01:00:00 14 7 Noroeste 15 Noroeste 0 1024.9 0.2 49
2020-03-08 00:00:00 14.1 2 Norte 12 Norte 0 1025.1 0.6 48
2020-03-07 23:00:00 14.2 5 Noroeste 11 Noroeste 0 1025.2 1.1 48
2020-03-07 22:00:00 13 0 Calma 8 Noroeste 0 1024.7 1.1 55
2020-03-07 21:00:00 15.1 5 Noroeste 7 Oeste 0 1024.5 1.3 46
2020-03-07 20:00:00 15.6 4 Oeste 8 Oeste 0 1024.1 0.9 42
2020-03-07 19:00:00 18.4 4 Oeste 12 Sudoeste 0 1023.6 -0.4 36
2020-03-07 18:00:00 19.8 8 Sudoeste 13 Sudoeste 0 1023.2 -1.1 33
2020-03-07 17:00:00 20.3 8 Sudoeste 14 Sudoeste 0 1023.2 -2.1 33
2020-03-07 16:00:00 19.5 10 Sudoeste 17 Sudoeste 0 1024 -2.1 34
2020-03-07 15:00:00 20 8 Sur 18 Oeste 0 1024.3 -1.8 34
2020-03-07 14:00:00 19.7 6 Sudeste 18 Sur 0 1025.3 -0.8 35
2020-03-07 13:00:00 18.6 9 Sudeste 18 Sudeste 0 1026.1 0.5 36
2020-03-07 12:00:00 17.9 8 Este 21 Este 0 1026.1 1.1 37
2020-03-07 11:00:00 14.8 8 Norte 15 Noroeste 0 1026.1 1.5 50
2020-03-07 10:00:00 12.7 4 Norte 23 Norte 0 1025.6 0.5 57
2020-03-07 09:00:00 9.9 7 Norte 22 Nordeste 0 1025 -0.1 69
2020-03-07 08:00:00 8.6 5 Norte 24 Norte 0 1024.6 -0.3 73
2020-03-07 07:00:00 9.2 10 Noroeste 21 Norte 0 1025.1 -0.5 73
2020-03-07 06:00:00 8.6 5 Norte 13 Norte 0 1025.1 -0.8 76
2020-03-07 05:00:00 9 5 Noroeste 13 Noroeste 0 1024.9 -0.7 73
2020-03-07 04:00:00 9.5 3 Norte 12 Nordeste 0 1025.6 0.2 69
2020-03-07 03:00:00 10.1 2 Este 7 Nordeste 0 1025.9 0.5 62
2020-03-07 02:00:00 11.2 2 Noroeste 17 Nordeste 0 1025.6 0.5 56
2020-03-07 01:00:00 12.1 4 Norte 26 Noroeste 0 1025.4 1 52
2020-03-07 00:00:00 12.8 8 Norte 24 Norte 0 1025.4 1.6 50
2020-03-06 23:00:00 13.8 6 Norte 26 Noroeste 0 1025.1 2 47
2020-03-06 22:00:00 14.8 13 Noroeste 31 Noroeste 0 1024.4 1.7 45
2020-03-06 21:00:00 15.7 12 Norte 28 Noroeste 0 1023.8 1.5 43
2020-03-06 20:00:00 16.6 10 Noroeste 26 Norte 0 1023.1 0.8 40
2020-03-06 19:00:00 17.8 10 Norte 31 Norte 0 1022.7 0.3 37
2020-03-06 18:00:00 18.9 12 Noroeste 30 Noroeste 0 1022.3 -0.7 36
2020-03-06 17:00:00 19.3 13 Noroeste 35 Norte 0 1022.3 -1.7 36
2020-03-06 16:00:00 19.3 12 Norte 32 Noroeste 0 1022.4 -2.2 35
2020-03-06 15:00:00 18.9 14 Norte 35 Noroeste 0 1023 -1.5 36
2020-03-06 14:00:00 18.1 15 Noroeste 36 Norte 0 1024 -0.9 37
2020-03-06 13:00:00 17.5 15 Norte 29 Noroeste 0 1024.6 0.1 39
2020-03-06 12:00:00 16.6 12 Norte 31 Norte 0 1024.5 0.5 44
2020-03-06 11:00:00 15.6 10 Norte 32 Noroeste 0 1024.9 1.6 51
2020-03-06 10:00:00 14.3 10 Noroeste 24 Noroeste 0 1024.5 1.3 62
2020-03-06 09:00:00 11.6 4 Oeste 9 Oeste 0 1024 0.9 83
2020-03-06 08:00:00 10 4 Oeste 8 Oeste 0 1023.3 0.2 88
2020-03-06 07:00:00 8.8 4 Oeste 6 Oeste 0 1023.2 0 86
2020-03-06 06:00:00 9.1 3 Oeste 5 Oeste 0 1023.1 -0.3 83
2020-03-06 05:00:00 9.1 4 Oeste 6 Noroeste 0 1023.1 -0.4 82
2020-03-06 04:00:00 10.1 3 Noroeste 10 Noroeste 0 1023.2 -0.2 80
2020-03-06 03:00:00 10.7 4 Noroeste 9 Oeste 0 1023.4 0.2 77
2020-03-06 02:00:00 11.3 4 Noroeste 9 Noroeste 0 1023.5 1 74
2020-03-06 01:00:00 11.9 4 Noroeste 12 Noroeste 0 1023.4 1.3 70
2020-03-06 00:00:00 12.4 4 Noroeste 14 Noroeste 0 1023.2 2 69
2020-03-05 23:00:00 13.5 6 Noroeste 22 Oeste 0 1022.5 2.1 64
2020-03-05 22:00:00 14.1 8 Noroeste 23 Norte 0 1022.1 2.5 60
2020-03-05 21:00:00 15.2 9 Noroeste 24 Norte 0 1021.2 2.2 55
2020-03-05 20:00:00 16.4 11 Noroeste 32 Noroeste 0 1020.4 2.1 48
2020-03-05 19:00:00 18 11 Noroeste 33 Noroeste 0 1019.6 1.2 40
2020-03-05 18:00:00 19.5 11 Noroeste 28 Noroeste 0 1019 0.3 38
2020-03-05 17:00:00 20 12 Noroeste 29 Noroeste 0 1018.3 -1.2 37
2020-03-05 16:00:00 20.1 12 Norte 28 Noroeste 0 1018.4 -1.4 38
2020-03-05 15:00:00 18.8 13 Noroeste 30 Norte 0 1018.7 -1 41
2020-03-05 14:00:00 19.9 12 Noroeste 29 Noroeste 0 1019.5 -0.4 43
2020-03-05 13:00:00 17.2 13 Noroeste 30 Noroeste 0 1019.8 0.6 51
2020-03-05 12:00:00 16.8 16 Noroeste 30 Norte 0 1019.7 0.9 52
2020-03-05 11:00:00 15.8 9 Oeste 16 Sudoeste 0 1019.9 1.8 69
2020-03-05 10:00:00 14.8 8 Sudoeste 14 Sudoeste 0 1019.2 0.5 77
2020-03-05 09:00:00 12.4 0 Calma 6 Noroeste 0 1018.8 0.3 90
2020-03-05 08:00:00 10.2 3 Sur 5 Sur 0 1018.1 -0.4 89
2020-03-05 07:00:00 10.9 2 Noroeste 7 Noroeste 0 1018.7 -0.4 89
2020-03-05 06:00:00 11.5 4 Noroeste 14 Noroeste 0 1018.5 -1.2 88
2020-03-05 05:00:00 12.1 5 Noroeste 12 Noroeste 0 1018.5 -1.7 86
2020-03-05 04:00:00 12.4 5 Norte 13 Noroeste 0 1019.1 -1.6 82
2020-03-05 03:00:00 13 6 Norte 14 Noroeste 0 1019.7 -1.5 79
2020-03-05 02:00:00 13.6 3 Norte 21 Norte 0 1020.2 -1.5 74
2020-03-05 01:00:00 14.4 10 Noroeste 22 Norte 0 1020.7 -0.7 71
2020-03-05 00:00:00 15 10 Norte 21 Noroeste 0 1021.2 0 70
2020-03-04 23:00:00 14.7 5 Noroeste 12 Noroeste 0 1021.7 0.7 75
2020-03-04 22:00:00 14.8 4 Noroeste 13 Oeste 0 1021.4 0.3 78
2020-03-04 21:00:00 15.3 6 Oeste 14 Oeste 0 1021.2 0.2 74
2020-03-04 20:00:00 16.2 8 Sudoeste 21 Sudoeste 0 1021 -0.1 71
2020-03-04 19:00:00 17.5 12 Sudoeste 25 Sudoeste 0 1021.1 -0.5 61
2020-03-04 18:00:00 19.4 14 Sudoeste 24 Sudoeste 0 1021 -1.4 53
2020-03-04 17:00:00 20.1 15 Sudoeste 25 Sudoeste 0 1021.1 -2.2 50
2020-03-04 16:00:00 21.4 5 Norte 23 Oeste 0 1021.6 -2.7 42
2020-03-04 15:00:00 20.8 10 Noroeste 27 Noroeste 0 1022.4 -2.4 43
2020-03-04 14:00:00 20.6 7 Norte 23 Noroeste 0 1023.3 -1.6 43
2020-03-04 13:00:00 20.4 6 Noroeste 18 Norte 0 1024.3 -0.4 46
2020-03-04 12:00:00 19.1 6 Noroeste 14 Noroeste 0 1024.8 0.6 56
2020-03-04 11:00:00 18.5 3 Noroeste 9 Oeste 0 1024.9 1.1 59
2020-03-04 10:00:00 15.5 2 Noroeste 9 Noroeste 0 1024.7 1 81
2020-03-04 09:00:00 13.3 2 Oeste 4 Oeste 0 1024.2 0.3 91
2020-03-04 08:00:00 12.5 0 Calma 4 Norte 0 1023.8 0.1 91
2020-03-04 07:00:00 12 0 Calma 4 Nordeste 0 1023.7 -0.2 91
2020-03-04 06:00:00 11 0 Calma 7 Noroeste 0 1023.9 -0.7 91
2020-03-04 05:00:00 11.4 4 Noroeste 10 Noroeste 0 1023.7 -1.1 92
2020-03-04 04:00:00 11.1 3 Noroeste 7 Noroeste 0 1023.9 -0.7 92
2020-03-04 03:00:00 10.3 2 Noroeste 3 Noroeste 0 1024.6 -0.2 88
2020-03-04 02:00:00 10.6 0 Calma 3 Noroeste 0 1024.8 0.1 87
2020-03-04 01:00:00 11.6 0 Calma 7 Noroeste 0 1024.6 0.3 87
2020-03-04 00:00:00 13 4 Noroeste 8 Oeste 0 1024.8 0.9 84
2020-03-03 23:00:00 12.8 5 Noroeste 8 Noroeste 0 1024.7 1.2 84
2020-03-03 22:00:00 13.4 2 Noroeste 6 Oeste 0 1024.3 1.2 78
2020-03-03 21:00:00 14.6 0 Calma 6 Oeste 0 1023.9 1.5 76
2020-03-03 20:00:00 16.1 5 Oeste 17 Oeste 0 1023.5 1.3 75
2020-03-03 19:00:00 17.7 12 Oeste 30 Sudoeste 0 1023.1 0.5 73
2020-03-03 18:00:00 18.4 19 Sudoeste 38 Oeste 0 1022.4 -0.8 69
2020-03-03 17:00:00 18.3 21 Sudoeste 38 Sudoeste 0 1022.2 -1.6 64
2020-03-03 16:00:00 18.8 21 Sudoeste 38 Oeste 0 1022.6 -2 62
2020-03-03 15:00:00 19.2 18 Sudoeste 32 Oeste 0 1023.2 -2.1 60
2020-03-03 14:00:00 18.8 14 Sudoeste 26 Sudoeste 0 1023.8 -1.5 56
2020-03-03 13:00:00 19.7 9 Sudoeste 19 Sudoeste 0 1024.6 0 54
2020-03-03 12:00:00 18 9 Sudoeste 20 Oeste 0 1025.3 1.5 55
2020-03-03 11:00:00 17.1 11 Sudoeste 18 Sudoeste 0 1025.3 2.1 56
2020-03-03 10:00:00 14.2 3 Oeste 6 Oeste 0 1024.6 1.7 72
2020-03-03 09:00:00 10.2 3 Noroeste 6 Noroeste 0 1023.8 1.1 88
2020-03-03 08:00:00 8.1 0 Calma 3 Sudeste 0 1023.2 0.7 87
2020-03-03 07:00:00 8.4 0 Calma 6 Norte 0 1022.9 0.3 87
2020-03-03 06:00:00 8.8 3 Norte 9 Norte 0 1022.7 -0.4 86
2020-03-03 05:00:00 9.5 3 Norte 8 Noroeste 0 1022.5 -0.8 86
2020-03-03 04:00:00 9.4 0 Calma 5 Norte 0 1022.6 -1 80
2020-03-03 03:00:00 10 2 Noroeste 6 Noroeste 0 1023.1 -0.4 75
2020-03-03 02:00:00 11.3 0 Calma 5 Sudeste 0 1023.3 0 71
2020-03-03 01:00:00 11.2 0 Calma 5 Noroeste 0 1023.6 0.9 68
2020-03-03 00:00:00 12.8 3 Norte 16 Noroeste 0 1023.5 1.4 62
2020-03-02 23:00:00 13.5 8 Noroeste 17 Norte 0 1023.3 2.3 58
2020-03-02 22:00:00 13.9 6 Noroeste 14 Noroeste 0 1022.7 2.7 58
2020-03-02 21:00:00 14.6 3 Noroeste 14 Noroeste 0 1022.1 3.1 52
2020-03-02 20:00:00 16.1 6 Noroeste 21 Norte 0 1021 2.7 46
2020-03-02 19:00:00 17.6 9 Noroeste 25 Noroeste 0 1020 1.6 38
2020-03-02 18:00:00 19.4 11 Noroeste 31 Norte 0 1019 1.1 36
2020-03-02 17:00:00 20.7 9 Noroeste 31 Noroeste 0 1018.3 0.3 35
2020-03-02 16:00:00 20.6 13 Noroeste 33 Noroeste 0 1018.4 0.2 35
2020-03-02 15:00:00 21.1 13 Noroeste 30 Noroeste 0 1017.9 0.1 37
2020-03-02 14:00:00 20.5 13 Noroeste 32 Norte 0 1018 0.8 37
2020-03-02 13:00:00 20.2 11 Noroeste 35 Norte 0 1018.2 1.9 39
2020-03-02 12:00:00 19.9 13 Noroeste 35 Oeste 0 1017.8 2.2 48
2020-03-02 11:00:00 20.3 12 Noroeste 30 Noroeste 0 1017.2 2.1 53
2020-03-02 10:00:00 18.5 13 Oeste 27 Oeste 0 1016.3 1.4 70
2020-03-02 09:00:00 17 9 Oeste 22 Oeste 0 1015.6 0.4 81
2020-03-02 08:00:00 16.1 12 Oeste 23 Oeste 0 1015.1 0.1 83
2020-03-02 07:00:00 16.4 14 Oeste 28 Sudoeste 0 1014.9 0.6 80
2020-03-02 06:00:00 16.7 12 Oeste 22 Sudoeste 0 1015.2 0.1 78
2020-03-02 05:00:00 16.5 12 Oeste 29 Sudoeste 0 1015 -1.1 81
2020-03-02 04:00:00 16.1 18 Sudoeste 30 Oeste 0 1014.3 -1.7 84
2020-03-02 03:00:00 16.2 16 Sudoeste 33 Oeste 0 1015.1 -1.9 83
2020-03-02 02:00:00 16.4 19 Oeste 35 Oeste 0 1016.1 -0.8 81
2020-03-02 01:00:00 16.5 11 Sudoeste 24 Oeste 0 1016 -0.8 83
2020-03-02 00:00:00 16.5 16 Oeste 31 Sudoeste 0 1017 0.4 85
2020-03-01 23:00:00 16.3 15 Sudoeste 30 Sudoeste 0 1016.9 0.1 85
2020-03-01 22:00:00 16.4 15 Sudoeste 31 Sudoeste 0 1016.8 -0.2 85
2020-03-01 21:00:00 16.4 14 Sudoeste 28 Oeste 0 1016.6 -0.8 85
2020-03-01 20:00:00 16.3 13 Sudoeste 28 Sudoeste 0 1016.8 -0.8 83
2020-03-01 19:00:00 16.7 16 Sudoeste 30 Sudoeste 0 1017 -1 80
2020-03-01 18:00:00 18 19 Sudoeste 36 Sudoeste 0 1017.4 -0.6 73
2020-03-01 17:00:00 17.3 19 Sudoeste 30 Sudoeste 0 1017.6 -1.8 76
2020-03-01 16:00:00 17.9 16 Sudoeste 31 Sudoeste 0 1018 -1.7 73
2020-03-01 15:00:00 18.2 19 Sudoeste 33 Sudoeste 0 1018 -2.6 69
2020-03-01 14:00:00 19.5 19 Sudoeste 30 Sudoeste 0 1019.4 -0.8 64
2020-03-01 13:00:00 19 13 Sudoeste 20 Sudoeste 0 1019.7 0.2 68
2020-03-01 12:00:00 18.2 9 Sudoeste 18 Oeste 0 1020.6 1 65
2020-03-01 11:00:00 18.3 7 Sudoeste 16 Oeste 0 1020.2 1.4 68
2020-03-01 10:00:00 15.6 7 Sudoeste 14 Sudoeste 0 1019.5 0.7 82
2020-03-01 09:00:00 12.2 4 Noroeste 6 Noroeste 0 1019.6 0.9 90
2020-03-01 08:00:00 11.2 0 Calma 4 Noroeste 0 1018.8 0.3 89
2020-03-01 07:00:00 12.2 0 Calma 5 Oeste 0 1018.8 -0.4 88
2020-03-01 06:00:00 12.9 4 Oeste 8 Sudoeste 0 1018.7 -0.3 89
2020-03-01 05:00:00 12.7 4 Sudoeste 8 Sudoeste 0 1018.5 -0.6 88
2020-03-01 04:00:00 11.9 0 Calma 11 Oeste 0 1019.2 0.1 83
2020-03-01 03:00:00 12.1 2 Oeste 7 Oeste 0 1019 0.2 82
2020-03-01 02:00:00 12.1 5 Oeste 9 Oeste 0 1019.1 0.1 82
2020-03-01 01:00:00 12.1 4 Oeste 9 Oeste 0 1019.1 0.2 82
2020-03-01 00:00:00 12.7 4 Oeste 9 Noroeste 0 1018.8 0.5 81
2020-02-29 23:00:00 13.7 3 Noroeste 9 Oeste 0 1019 1 81
2020-02-29 22:00:00 15 4 Noroeste 7 Noroeste 0 1018.9 1.8 87
2020-02-29 21:00:00 16.4 3 Sudoeste 20 Oeste 0 1018.3 1.1 86
2020-02-29 20:00:00 16.6 11 Oeste 24 Sudoeste 0 1018 0.4 86
2020-02-29 19:00:00 16.7 15 Sudoeste 29 Sudoeste 0 1017.1 -0.4 86
2020-02-29 18:00:00 16.8 15 Sudoeste 28 Sudoeste 0 1017.2 -0.7 86
2020-02-29 17:00:00 16.9 15 Sudoeste 28 Sudoeste 0 1017.6 -1 85
2020-02-29 16:00:00 17.6 17 Sudoeste 33 Oeste 0 1017.5 -1.6 72
2020-02-29 15:00:00 19.3 22 Sudoeste 33 Sudoeste 0 1017.9 -1.7 62
2020-02-29 14:00:00 18.5 19 Sudoeste 37 Sudoeste 0 1018.6 -0.9 59
2020-02-29 13:00:00 18.1 21 Sudoeste 36 Sudoeste 0 1019.1 -0.8 59
2020-02-29 12:00:00 18.1 12 Sudoeste 22 Sudoeste 0 1019.6 0.4 60
2020-02-29 11:00:00 16.8 8 Sur 13 Sur 0 1019.5 0.7 65
2020-02-29 10:00:00 12.6 2 Este 6 Sudeste 0 1019.9 1 89
2020-02-29 09:00:00 10.3 3 Sudeste 5 Este 0 1019.2 0.9 92
2020-02-29 08:00:00 8.5 0 Calma 6 Noroeste 0 1018.8 0.5 92
2020-02-29 07:00:00 8.9 5 Noroeste 10 Noroeste 0 1018.9 0.7 92
2020-02-29 06:00:00 8.9 3 Nordeste 7 Norte 0 1018.3 -0.1 91
2020-02-29 05:00:00 9.8 7 Noroeste 14 Noroeste 0 1018.3 0.1 91
2020-02-29 04:00:00 9 0 Calma 8 Noroeste 0 1018.2 -0.3 90
2020-02-29 03:00:00 9 0 Calma 3 Noroeste 0 1018.4 -0.3 89
2020-02-29 02:00:00 9.8 0 Calma 7 Noroeste 0 1018.2 -0.3 88
2020-02-29 01:00:00 10.9 0 Calma 4 Norte 0 1018.5 0.6 90
2020-02-29 00:00:00 11.5 0 Calma 6 Noroeste 0 1018.7 1.2 88